Time;durP1;ratioP1;P1;durP2;ratioP2;P2;SDS_P1;SDS_P2;PMS_P1;PMS_P2;Temp;Humidity;BMP_temperature;BMP_pressure;BME280_temperature;BME280_humidity;BME280_pressure;Samples;Min_cycle;Max_cycle;Signal;HPM_P1;HPM_P2
2023/04/20 00:00:25;;;;;;;8.20;4.40;;;;;;;;;;4958582;28;20460;-66
2023/04/20 00:02:50;;;;;;;8.13;4.77;;;;;;;;;;4970681;28;20018;-64
2023/04/20 00:05:16;;;;;;;8.68;5.00;;;;;;;;;;4966320;28;20122;-67
2023/04/20 00:07:41;;;;;;;9.00;5.00;;;;;;;;;;4967809;28;20031;-65
2023/04/20 00:10:07;;;;;;;9.43;5.88;;;;;;;;;;4972872;28;20078;-65
2023/04/20 00:12:33;;;;;;;8.73;4.65;;;;;;;;;;4967496;28;20030;-64
2023/04/20 00:14:58;;;;;;;7.47;4.60;;;;;;;;;;4968127;28;20026;-64
2023/04/20 00:17:23;;;;;;;7.57;4.40;;;;;;;;;;4957342;28;20114;-68
2023/04/20 00:19:48;;;;;;;9.27;4.90;;;;;;;;;;4966629;28;20022;-64
2023/04/20 00:22:13;;;;;;;7.18;4.30;;;;;;;;;;4961787;28;20011;-66
2023/04/20 00:24:38;;;;;;;8.63;4.97;;;;;;;;;;4962295;28;20073;-67
2023/04/20 00:27:03;;;;;;;7.90;4.70;;;;;;;;;;4965302;28;20486;-65
2023/04/20 00:29:29;;;;;;;8.03;4.70;;;;;;;;;;4969039;28;20034;-65
2023/04/20 00:31:54;;;;;;;7.90;4.30;;;;;;;;;;4969835;28;20019;-65
2023/04/20 00:34:19;;;;;;;7.27;4.47;;;;;;;;;;4962456;28;20403;-68
2023/04/20 00:36:45;;;;;;;10.00;5.60;;;;;;;;;;4971976;28;20026;-63
2023/04/20 00:39:10;;;;;;;8.83;5.17;;;;;;;;;;4972482;28;20033;-65
2023/04/20 00:41:35;;;;;;;8.47;4.70;;;;;;;;;;4974303;28;20153;-64
2023/04/20 00:44:00;;;;;;;9.33;5.40;;;;;;;;;;4972323;28;20712;-65
2023/04/20 00:46:25;;;;;;;8.87;4.93;;;;;;;;;;4972465;28;20037;-68
2023/04/20 00:48:51;;;;;;;9.17;5.60;;;;;;;;;;4971499;28;20062;-64
2023/04/20 00:51:17;;;;;;;12.15;6.28;;;;;;;;;;4973062;28;20403;-64
2023/04/20 00:53:43;;;;;;;12.43;6.90;;;;;;;;;;4976396;28;20046;-65
2023/04/20 00:56:08;;;;;;;12.60;7.20;;;;;;;;;;4977869;28;20073;-66
2023/04/20 00:58:33;;;;;;;15.13;7.72;;;;;;;;;;4971427;28;20489;-68
2023/04/20 01:00:59;;;;;;;10.82;6.90;;;;;;;;;;4969607;28;20041;-64
2023/04/20 01:03:24;;;;;;;12.07;6.70;;;;;;;;;;4968969;28;20027;-67
2023/04/20 01:05:50;;;;;;;11.18;6.30;;;;;;;;;;4972363;28;20019;-64
2023/04/20 01:08:15;;;;;;;11.98;7.40;;;;;;;;;;4965282;28;20430;-65
2023/04/20 01:10:41;;;;;;;11.65;6.75;;;;;;;;;;4959509;28;20051;-66
2023/04/20 01:13:06;;;;;;;11.10;6.78;;;;;;;;;;4962199;28;20030;-66
2023/04/20 01:15:33;;;;;;;13.18;7.07;;;;;;;;;;4958510;28;20022;-64
2023/04/20 01:17:58;;;;;;;12.73;7.22;;;;;;;;;;4953378;28;20715;-64
2023/04/20 01:20:23;;;;;;;11.05;6.43;;;;;;;;;;4972717;28;20102;-63
2023/04/20 01:22:49;;;;;;;10.23;6.50;;;;;;;;;;4965911;28;20105;-64
2023/04/20 01:25:15;;;;;;;10.52;6.13;;;;;;;;;;4968442;28;20063;-64
2023/04/20 01:27:40;;;;;;;12.27;7.20;;;;;;;;;;4967678;28;20070;-69
2023/04/20 01:30:06;;;;;;;12.30;6.60;;;;;;;;;;4970086;28;20475;-64
2023/04/20 01:32:31;;;;;;;11.88;6.57;;;;;;;;;;4971580;28;20055;-65
2023/04/20 01:34:56;;;;;;;10.40;6.15;;;;;;;;;;4964051;28;20102;-70
2023/04/20 01:37:21;;;;;;;12.73;6.45;;;;;;;;;;4962303;28;20030;-65
2023/04/20 01:39:47;;;;;;;12.67;6.80;;;;;;;;;;4970426;28;20054;-66
2023/04/20 01:42:12;;;;;;;10.88;6.03;;;;;;;;;;4968319;28;20030;-63
2023/04/20 01:44:37;;;;;;;11.98;6.80;;;;;;;;;;4964320;28;20023;-66
2023/04/20 01:47:03;;;;;;;12.52;7.13;;;;;;;;;;4960135;28;20023;-69
2023/04/20 01:49:28;;;;;;;11.27;6.70;;;;;;;;;;4971739;28;20104;-64
2023/04/20 01:51:54;;;;;;;14.37;7.40;;;;;;;;;;4965702;28;20187;-68
2023/04/20 01:54:19;;;;;;;10.48;5.78;;;;;;;;;;4967984;28;20613;-66
2023/04/20 01:56:44;;;;;;;9.37;6.00;;;;;;;;;;4963933;28;20479;-64
2023/04/20 01:59:09;;;;;;;10.63;6.05;;;;;;;;;;4973022;28;20105;-65
2023/04/20 02:01:35;;;;;;;11.30;6.32;;;;;;;;;;4969964;28;20465;-63
2023/04/20 02:04:00;;;;;;;10.70;6.00;;;;;;;;;;4973753;28;20057;-68
2023/04/20 02:06:25;;;;;;;10.53;6.20;;;;;;;;;;4970696;28;20732;-67
2023/04/20 02:08:53;;;;;;;10.07;5.65;;;;;;;;;;4964806;28;20054;-65
2023/04/20 02:11:18;;;;;;;11.50;6.18;;;;;;;;;;4967929;28;20037;-68
2023/04/20 02:13:43;;;;;;;10.50;5.72;;;;;;;;;;4964126;28;20010;-65
2023/04/20 02:16:09;;;;;;;10.77;6.43;;;;;;;;;;4978134;28;20023;-67
2023/04/20 02:18:34;;;;;;;11.15;6.30;;;;;;;;;;4967913;28;20015;-64
2023/04/20 02:21:00;;;;;;;10.43;5.85;;;;;;;;;;4963672;28;20038;-71
2023/04/20 02:23:25;;;;;;;12.40;6.87;;;;;;;;;;4968405;28;20030;-64
2023/04/20 02:25:50;;;;;;;12.05;6.65;;;;;;;;;;4966164;28;20031;-63
2023/04/20 02:28:15;;;;;;;13.70;7.00;;;;;;;;;;4965677;28;20038;-68
2023/04/20 02:30:40;;;;;;;11.45;6.57;;;;;;;;;;4972095;28;20038;-64
2023/04/20 02:33:05;;;;;;;12.68;6.95;;;;;;;;;;4966712;28;20022;-71
2023/04/20 02:35:30;;;;;;;12.75;7.45;;;;;;;;;;4971147;28;20018;-65
2023/04/20 02:37:56;;;;;;;14.47;8.00;;;;;;;;;;4970238;28;20078;-66
2023/04/20 02:40:21;;;;;;;11.27;6.85;;;;;;;;;;4973970;28;20022;-69
2023/04/20 02:42:46;;;;;;;12.97;6.83;;;;;;;;;;4971689;28;20027;-64
2023/04/20 02:45:11;;;;;;;12.02;6.78;;;;;;;;;;4974873;28;20054;-64
2023/04/20 02:47:36;;;;;;;14.67;7.50;;;;;;;;;;4973253;28;20471;-63
2023/04/20 02:50:02;;;;;;;12.07;6.83;;;;;;;;;;4969483;28;20081;-72
2023/04/20 02:52:28;;;;;;;16.27;8.20;;;;;;;;;;4976614;28;20031;-69
2023/04/20 02:54:53;;;;;;;15.80;8.43;;;;;;;;;;4970917;28;20034;-68
2023/04/20 02:57:18;;;;;;;12.13;7.07;;;;;;;;;;4973795;28;20026;-65
2023/04/20 02:59:43;;;;;;;16.87;8.37;;;;;;;;;;4976456;28;20084;-64
2023/04/20 03:02:09;;;;;;;15.70;8.57;;;;;;;;;;4970488;28;20019;-65
2023/04/20 03:04:34;;;;;;;14.65;8.02;;;;;;;;;;4972203;28;20026;-67
2023/04/20 03:07:00;;;;;;;13.73;7.80;;;;;;;;;;4972526;28;20030;-64
2023/04/20 03:09:25;;;;;;;13.82;8.10;;;;;;;;;;4966747;28;20061;-65
2023/04/20 03:11:50;;;;;;;13.05;7.85;;;;;;;;;;4963933;28;20031;-69
2023/04/20 03:14:16;;;;;;;15.53;8.30;;;;;;;;;;4968307;28;20025;-66
2023/04/20 03:16:41;;;;;;;17.05;8.35;;;;;;;;;;4974252;28;20133;-65
2023/04/20 03:19:06;;;;;;;14.90;7.83;;;;;;;;;;4964815;28;20461;-65
2023/04/20 03:21:31;;;;;;;16.37;8.40;;;;;;;;;;4974406;28;20074;-64
2023/04/20 03:23:57;;;;;;;15.27;8.47;;;;;;;;;;4970228;28;20169;-67
2023/04/20 03:26:23;;;;;;;19.13;9.30;;;;;;;;;;4970086;28;20097;-65
2023/04/20 03:28:48;;;;;;;18.90;8.75;;;;;;;;;;4960918;28;20507;-65
2023/04/20 03:31:13;;;;;;;18.60;9.82;;;;;;;;;;4974650;28;20026;-64
2023/04/20 03:33:39;;;;;;;18.40;9.38;;;;;;;;;;4985655;28;20034;-65
2023/04/20 03:36:05;;;;;;;18.15;8.60;;;;;;;;;;4978692;28;20031;-64
2023/04/20 03:38:30;;;;;;;19.45;10.02;;;;;;;;;;4971299;28;20035;-63
2023/04/20 03:40:55;;;;;;;21.73;10.00;;;;;;;;;;4974045;28;20023;-64
2023/04/20 03:43:20;;;;;;;22.75;10.57;;;;;;;;;;4966012;28;20034;-65
2023/04/20 03:45:45;;;;;;;25.95;10.98;;;;;;;;;;4971667;28;20117;-65
2023/04/20 03:48:10;;;;;;;21.97;10.43;;;;;;;;;;4971460;28;20037;-68
2023/04/20 03:50:36;;;;;;;25.40;10.95;;;;;;;;;;4970066;28;20018;-64
2023/04/20 03:53:01;;;;;;;21.83;10.85;;;;;;;;;;4968012;28;20025;-64
2023/04/20 03:55:26;;;;;;;24.40;11.17;;;;;;;;;;4969666;28;20128;-65
2023/04/20 03:57:52;;;;;;;25.23;11.48;;;;;;;;;;4965988;28;20031;-64
2023/04/20 04:00:17;;;;;;;23.88;11.88;;;;;;;;;;4966368;28;20043;-64
2023/04/20 04:02:42;;;;;;;23.83;10.63;;;;;;;;;;4963620;28;20397;-64
2023/04/20 04:05:08;;;;;;;24.08;10.77;;;;;;;;;;4971152;28;20094;-66
2023/04/20 04:07:33;;;;;;;24.57;11.23;;;;;;;;;;4968368;28;20073;-66
2023/04/20 04:09:58;;;;;;;25.50;12.18;;;;;;;;;;4975958;28;20480;-66
2023/04/20 04:12:23;;;;;;;30.38;12.63;;;;;;;;;;4960017;28;20395;-67
2023/04/20 04:14:48;;;;;;;28.53;11.67;;;;;;;;;;4966020;28;20035;-64
2023/04/20 04:17:14;;;;;;;26.88;12.98;;;;;;;;;;4968742;28;20442;-67
2023/04/20 04:19:39;;;;;;;22.03;11.10;;;;;;;;;;4963195;28;20032;-65
2023/04/20 04:22:04;;;;;;;31.73;12.87;;;;;;;;;;4961577;28;20384;-66
2023/04/20 04:24:30;;;;;;;26.80;11.90;;;;;;;;;;4962294;28;20027;-67
2023/04/20 04:26:57;;;;;;;27.48;10.98;;;;;;;;;;4960877;28;20552;-66
2023/04/20 04:29:24;;;;;;;24.23;10.93;;;;;;;;;;4964776;28;20034;-65
2023/04/20 04:31:49;;;;;;;24.13;11.35;;;;;;;;;;4954362;28;20031;-66
2023/04/20 04:34:17;;;;;;;28.05;11.55;;;;;;;;;;4961705;28;21188;-64
2023/04/20 04:36:43;;;;;;;21.55;10.02;;;;;;;;;;4971204;28;20088;-67
2023/04/20 04:39:08;;;;;;;22.27;9.50;;;;;;;;;;4964068;28;20097;-67
2023/04/20 04:41:33;;;;;;;24.87;10.90;;;;;;;;;;4968059;28;20034;-66
2023/04/20 04:43:58;;;;;;;28.00;10.97;;;;;;;;;;4971715;28;20473;-64
2023/04/20 04:46:24;;;;;;;26.90;11.38;;;;;;;;;;4971669;28;20081;-66
2023/04/20 04:48:50;;;;;;;34.35;12.98;;;;;;;;;;4968398;28;20026;-64
2023/04/20 04:51:15;;;;;;;31.85;11.40;;;;;;;;;;4965730;28;20019;-64
2023/04/20 04:53:43;;;;;;;27.85;11.77;;;;;;;;;;4972411;28;20041;-67
2023/04/20 04:56:09;;;;;;;23.77;10.02;;;;;;;;;;4968546;28;20031;-68
2023/04/20 04:58:34;;;;;;;22.52;10.65;;;;;;;;;;4966288;28;20023;-68
2023/04/20 05:00:59;;;;;;;35.07;13.87;;;;;;;;;;4965002;28;20019;-67
2023/04/20 05:03:25;;;;;;;29.20;11.43;;;;;;;;;;4962527;28;20031;-65
2023/04/20 05:05:50;;;;;;;31.90;11.00;;;;;;;;;;4971704;28;20022;-64
2023/04/20 05:08:15;;;;;;;22.83;10.83;;;;;;;;;;4969587;28;20426;-65
2023/04/20 05:10:40;;;;;;;20.90;9.83;;;;;;;;;;4967033;28;20039;-66
2023/04/20 05:13:05;;;;;;;26.50;10.67;;;;;;;;;;4970949;28;20050;-66
2023/04/20 05:15:30;;;;;;;23.38;10.57;;;;;;;;;;4973610;28;20031;-66
2023/04/20 05:17:56;;;;;;;26.10;11.27;;;;;;;;;;4973102;28;20062;-69
2023/04/20 05:20:21;;;;;;;25.30;11.38;;;;;;;;;;4978398;28;20026;-64
2023/04/20 05:22:46;;;;;;;27.00;10.97;;;;;;;;;;4980018;28;20483;-64
2023/04/20 05:25:11;;;;;;;27.27;12.15;;;;;;;;;;4973972;28;20100;-64
2023/04/20 05:27:36;;;;;;;28.53;11.43;;;;;;;;;;4963953;28;20031;-67
2023/04/20 05:30:02;;;;;;;22.80;10.82;;;;;;;;;;4955520;28;20027;-64
2023/04/20 05:32:27;;;;;;;26.95;12.40;;;;;;;;;;4966409;28;20483;-64
2023/04/20 05:34:52;;;;;;;31.23;12.98;;;;;;;;;;4972853;28;20016;-64
2023/04/20 05:37:17;;;;;;;26.87;11.80;;;;;;;;;;4974258;28;20026;-63
2023/04/20 05:39:43;;;;;;;25.37;10.63;;;;;;;;;;4975665;28;20023;-66
2023/04/20 05:42:08;;;;;;;21.90;10.33;;;;;;;;;;4975459;28;20094;-64
2023/04/20 05:44:35;;;;;;;23.83;10.60;;;;;;;;;;4976037;28;20031;-66
2023/04/20 05:47:00;;;;;;;26.00;10.73;;;;;;;;;;4975151;28;20030;-65
2023/04/20 05:49:25;;;;;;;27.38;11.70;;;;;;;;;;4976894;28;20450;-67
2023/04/20 05:51:50;;;;;;;20.63;9.77;;;;;;;;;;4976053;28;20019;-64
2023/04/20 05:54:16;;;;;;;25.23;10.57;;;;;;;;;;4976216;28;20018;-65
2023/04/20 05:56:41;;;;;;;21.23;9.73;;;;;;;;;;4976506;28;20397;-68
2023/04/20 05:59:06;;;;;;;26.33;11.88;;;;;;;;;;4977673;28;20030;-64
2023/04/20 06:01:31;;;;;;;28.00;12.03;;;;;;;;;;4976866;28;20029;-68
2023/04/20 06:03:56;;;;;;;28.83;13.37;;;;;;;;;;4970369;28;20822;-65
2023/04/20 06:06:21;;;;;;;25.85;11.45;;;;;;;;;;4974152;28;20395;-66
2023/04/20 06:08:47;;;;;;;24.80;11.73;;;;;;;;;;4972233;28;20502;-63
2023/04/20 06:11:12;;;;;;;26.20;11.60;;;;;;;;;;4967468;28;20050;-67
2023/04/20 06:13:37;;;;;;;26.23;11.15;;;;;;;;;;4954862;28;20023;-66
2023/04/20 06:16:02;;;;;;;20.38;10.02;;;;;;;;;;4954558;28;20031;-66
2023/04/20 06:18:27;;;;;;;22.57;10.60;;;;;;;;;;4954040;28;20395;-66
2023/04/20 06:20:53;;;;;;;24.58;10.57;;;;;;;;;;4954696;28;20027;-65
2023/04/20 06:23:18;;;;;;;20.02;8.98;;;;;;;;;;4961882;28;20023;-67
2023/04/20 06:25:43;;;;;;;19.13;8.70;;;;;;;;;;4970921;28;20575;-64
2023/04/20 06:28:08;;;;;;;22.23;10.00;;;;;;;;;;4954243;28;20027;-63
2023/04/20 06:30:34;;;;;;;17.95;8.98;;;;;;;;;;4954823;28;20034;-64
2023/04/20 06:32:59;;;;;;;18.27;8.35;;;;;;;;;;4954123;28;20102;-64
2023/04/20 06:35:25;;;;;;;18.17;8.55;;;;;;;;;;4971665;28;20061;-65
2023/04/20 06:37:50;;;;;;;21.70;9.75;;;;;;;;;;4973570;28;20011;-64
2023/04/20 06:40:16;;;;;;;18.58;8.60;;;;;;;;;;4972513;28;20022;-65
2023/04/20 06:42:41;;;;;;;16.25;8.13;;;;;;;;;;4963722;28;20487;-64
2023/04/20 06:45:06;;;;;;;17.75;8.90;;;;;;;;;;4955188;28;20055;-67
2023/04/20 06:47:32;;;;;;;20.85;9.50;;;;;;;;;;4954128;28;20023;-63
2023/04/20 06:49:58;;;;;;;16.17;8.30;;;;;;;;;;4954876;28;20027;-65
2023/04/20 06:52:23;;;;;;;18.88;8.95;;;;;;;;;;4954775;28;20031;-64
2023/04/20 06:54:48;;;;;;;18.90;9.40;;;;;;;;;;4965840;28;20075;-66
2023/04/20 06:57:13;;;;;;;20.08;9.48;;;;;;;;;;4966639;28;20027;-64
2023/04/20 06:59:38;;;;;;;20.35;9.55;;;;;;;;;;4954643;28;20384;-66
2023/04/20 07:02:04;;;;;;;17.65;8.32;;;;;;;;;;4954012;28;20114;-65
2023/04/20 07:04:29;;;;;;;17.65;8.75;;;;;;;;;;4954255;29;20030;-63
2023/04/20 07:06:54;;;;;;;16.02;7.85;;;;;;;;;;4953517;29;20421;-63
2023/04/20 07:09:19;;;;;;;17.73;8.68;;;;;;;;;;4954043;28;20055;-65
2023/04/20 07:11:45;;;;;;;17.50;8.13;;;;;;;;;;4965960;28;20073;-68
2023/04/20 07:14:10;;;;;;;15.90;8.30;;;;;;;;;;4958372;28;20435;-65
2023/04/20 07:16:35;;;;;;;17.20;8.70;;;;;;;;;;4953126;28;20019;-70
2023/04/20 07:19:00;;;;;;;17.05;8.88;;;;;;;;;;4954399;28;20029;-65
2023/04/20 07:21:26;;;;;;;16.65;8.05;;;;;;;;;;4954073;28;20472;-66
2023/04/20 07:23:51;;;;;;;17.42;8.55;;;;;;;;;;4953744;28;20026;-67
2023/04/20 07:26:16;;;;;;;19.23;9.53;;;;;;;;;;4953510;28;20468;-66
2023/04/20 07:28:41;;;;;;;17.57;9.20;;;;;;;;;;4965935;28;20049;-69
2023/04/20 07:31:06;;;;;;;17.40;8.77;;;;;;;;;;4959163;28;20023;-64
2023/04/20 07:33:34;;;;;;;18.27;9.15;;;;;;;;;;4965891;28;20015;-67
2023/04/20 07:35:59;;;;;;;16.73;8.68;;;;;;;;;;4972921;28;20347;-67
2023/04/20 07:38:25;;;;;;;19.73;9.70;;;;;;;;;;4972298;28;20030;-64
2023/04/20 07:40:50;;;;;;;17.33;8.88;;;;;;;;;;4972940;28;20482;-64
2023/04/20 07:43:15;;;;;;;20.97;9.90;;;;;;;;;;4970762;28;20042;-69
2023/04/20 07:45:40;;;;;;;18.17;9.18;;;;;;;;;;4963535;28;20020;-63
2023/04/20 07:48:08;;;;;;;18.42;9.82;;;;;;;;;;4953212;28;20107;-65
2023/04/20 07:50:33;;;;;;;19.45;10.00;;;;;;;;;;4953812;28;20023;-63
2023/04/20 07:52:58;;;;;;;17.73;9.33;;;;;;;;;;4953107;28;20098;-65
2023/04/20 07:55:23;;;;;;;17.38;9.02;;;;;;;;;;4970966;28;20509;-64
2023/04/20 07:57:49;;;;;;;16.40;9.13;;;;;;;;;;4952536;28;20027;-64
2023/04/20 08:00:14;;;;;;;19.77;10.13;;;;;;;;;;4952797;28;20023;-65
2023/04/20 08:02:40;;;;;;;19.27;10.57;;;;;;;;;;4968701;28;20102;-67
2023/04/20 08:05:05;;;;;;;16.23;9.10;;;;;;;;;;4960006;28;20026;-63
2023/04/20 08:07:30;;;;;;;19.98;9.52;;;;;;;;;;4953197;28;20023;-63
2023/04/20 08:10:00;;;;;;;17.63;9.13;;;;;;;;;;4953169;28;20479;-65
2023/04/20 08:12:25;;;;;;;18.10;10.07;;;;;;;;;;4953019;28;20090;-65
2023/04/20 08:14:50;;;;;;;18.70;9.43;;;;;;;;;;4953039;28;20027;-66
2023/04/20 08:17:15;;;;;;;19.13;9.23;;;;;;;;;;4968969;28;20119;-65
2023/04/20 08:19:40;;;;;;;19.38;9.98;;;;;;;;;;4953972;28;20031;-64
2023/04/20 08:22:05;;;;;;;26.15;13.02;;;;;;;;;;4952700;28;20383;-64
2023/04/20 08:24:31;;;;;;;25.77;12.95;;;;;;;;;;4953898;28;20058;-64
2023/04/20 08:26:57;;;;;;;21.40;10.53;;;;;;;;;;4952480;28;20047;-63
2023/04/20 08:29:23;;;;;;;;;;;;;;;;;;4953407;28;20031;-64
2023/04/20 08:31:48;;;;;;;17.50;9.57;;;;;;;;;;4962479;28;19906;-63
2023/04/20 08:34:13;;;;;;;19.13;10.25;;;;;;;;;;4974648;28;20046;-64
2023/04/20 08:36:38;;;;;;;20.00;10.97;;;;;;;;;;4975100;28;20419;-68
2023/04/20 08:39:08;;;;;;;21.17;11.02;;;;;;;;;;4962842;28;20019;-65
2023/04/20 08:41:33;;;;;;;23.52;12.60;;;;;;;;;;4956727;28;20015;-65
2023/04/20 08:43:58;;;;;;;21.80;11.10;;;;;;;;;;4956475;28;20023;-65
2023/04/20 08:46:23;;;;;;;23.17;11.87;;;;;;;;;;4956549;28;20170;-64
2023/04/20 08:48:49;;;;;;;25.60;13.67;;;;;;;;;;4970677;28;20395;-67
2023/04/20 08:51:16;;;;;;;19.25;10.90;;;;;;;;;;4976453;28;20030;-66
2023/04/20 08:53:41;;;;;;;21.00;11.35;;;;;;;;;;4976182;28;20114;-64
2023/04/20 08:56:06;;;;;;;23.00;12.52;;;;;;;;;;4976727;28;20027;-64
2023/04/20 08:58:32;;;;;;;22.52;11.70;;;;;;;;;;4975555;28;20053;-65
2023/04/20 09:00:59;;;;;;;19.23;11.37;;;;;;;;;;4975325;28;20038;-65
2023/04/20 09:03:38;;;;;;;19.90;10.93;;;;;;;;;;4975513;28;20022;-63
2023/04/20 09:06:03;;;;;;;19.65;11.48;;;;;;;;;;4974127;28;20511;-65
2023/04/20 09:08:36;;;;;;;20.35;11.30;;;;;;;;;;4957968;28;20050;-69
2023/04/20 09:11:01;;;;;;;21.65;11.98;;;;;;;;;;4956106;28;20015;-66
2023/04/20 09:13:26;;;;;;;20.87;11.77;;;;;;;;;;4956497;28;20038;-65
2023/04/20 09:15:51;;;;;;;20.63;12.15;;;;;;;;;;4956074;28;20015;-64
2023/04/20 09:18:17;;;;;;;19.53;11.03;;;;;;;;;;4955360;28;20026;-64
2023/04/20 09:20:42;;;;;;;20.20;11.50;;;;;;;;;;4956159;28;20480;-64
2023/04/20 09:23:11;;;;;;;22.17;11.73;;;;;;;;;;4973965;28;20015;-63
2023/04/20 09:25:37;;;;;;;24.40;12.02;;;;;;;;;;4957004;28;20471;-63
2023/04/20 09:28:02;;;;;;;20.13;11.20;;;;;;;;;;4955542;28;20023;-64
2023/04/20 09:30:40;;;;;;;20.00;11.27;;;;;;;;;;4962070;28;20110;-68
2023/04/20 09:33:07;;;;;;;22.23;12.20;;;;;;;;;;4974817;28;20082;-65
2023/04/20 09:35:32;;;;;;;21.83;11.68;;;;;;;;;;4974771;28;20083;-64
2023/04/20 09:37:58;;;;;;;21.15;12.60;;;;;;;;;;4970114;28;20045;-64
2023/04/20 09:40:23;;;;;;;22.47;12.03;;;;;;;;;;4955578;28;20554;-64
2023/04/20 09:42:48;;;;;;;20.85;12.02;;;;;;;;;;4954653;28;20428;-63
2023/04/20 09:45:15;;;;;;;18.53;11.20;;;;;;;;;;4955244;28;20423;-65
2023/04/20 09:47:41;;;;;;;20.38;11.48;;;;;;;;;;4954577;28;20511;-64
2023/04/20 09:50:09;;;;;;;22.65;12.27;;;;;;;;;;4955130;28;20023;-64
2023/04/20 09:52:35;;;;;;;22.40;12.23;;;;;;;;;;4960980;28;20426;-64
2023/04/20 09:55:01;;;;;;;22.50;11.93;;;;;;;;;;4969020;28;20090;-64
2023/04/20 09:57:26;;;;;;;22.77;12.25;;;;;;;;;;4954941;28;20055;-64
2023/04/20 09:59:53;;;;;;;20.90;11.90;;;;;;;;;;4955343;28;20031;-66
2023/04/20 10:02:18;;;;;;;21.80;12.57;;;;;;;;;;4973178;28;20549;-69
2023/04/20 10:04:52;;;;;;;21.20;12.27;;;;;;;;;;4955589;28;20027;-63
2023/04/20 10:07:22;;;;;;;24.77;12.60;;;;;;;;;;4954082;28;20369;-63
2023/04/20 10:09:47;;;;;;;22.42;12.55;;;;;;;;;;4953710;29;20035;-64
2023/04/20 10:12:13;;;;;;;24.02;13.32;;;;;;;;;;4955100;28;20394;-65
2023/04/20 10:14:38;;;;;;;22.90;12.50;;;;;;;;;;4955932;28;20070;-68
2023/04/20 10:17:05;;;;;;;23.98;13.07;;;;;;;;;;4973832;28;20130;-64
2023/04/20 10:19:40;;;;;;;21.65;12.35;;;;;;;;;;4957356;28;20094;-64
2023/04/20 10:22:06;;;;;;;25.02;12.95;;;;;;;;;;4957172;28;20019;-66
2023/04/20 10:24:31;;;;;;;22.63;13.07;;;;;;;;;;4961866;28;20034;-64
2023/04/20 10:26:57;;;;;;;23.95;14.13;;;;;;;;;;4956884;28;20395;-68
2023/04/20 10:29:24;;;;;;;22.70;12.55;;;;;;;;;;4961835;28;20077;-64
2023/04/20 10:31:49;;;;;;;25.90;13.55;;;;;;;;;;4972468;28;20014;-64
2023/04/20 10:34:14;;;;;;;24.48;13.15;;;;;;;;;;4973526;28;20537;-67
2023/04/20 10:36:40;;;;;;;25.02;13.20;;;;;;;;;;4955189;28;20024;-64
2023/04/20 10:39:16;;;;;;;20.23;11.07;;;;;;;;;;4954892;28;20027;-64
2023/04/20 10:41:50;;;;;;;22.52;12.63;;;;;;;;;;4954668;28;20027;-64
2023/04/20 10:44:15;;;;;;;20.70;11.77;;;;;;;;;;4954561;28;20042;-67
2023/04/20 10:46:40;;;;;;;21.17;12.03;;;;;;;;;;4960732;28;20022;-65
2023/04/20 10:49:06;;;;;;;26.20;13.38;;;;;;;;;;4967716;28;20019;-64
2023/04/20 10:51:31;;;;;;;25.37;13.70;;;;;;;;;;4954243;28;20015;-67
2023/04/20 10:53:57;;;;;;;23.70;13.05;;;;;;;;;;4953643;28;20058;-66
2023/04/20 10:56:22;;;;;;;24.02;13.13;;;;;;;;;;4953811;28;20475;-66
2023/04/20 10:58:47;;;;;;;21.93;12.37;;;;;;;;;;4968813;28;20414;-65
2023/04/20 11:01:13;;;;;;;25.53;14.13;;;;;;;;;;4958531;28;20094;-65
2023/04/20 11:03:38;;;;;;;25.77;14.15;;;;;;;;;;4952388;28;20074;-65
2023/04/20 11:06:03;;;;;;;26.05;14.73;;;;;;;;;;4954031;28;20029;-66
2023/04/20 11:08:55;;;;;;;24.30;13.80;;;;;;;;;;4953433;28;20027;-65
2023/04/20 11:11:23;;;;;;;26.48;13.82;;;;;;;;;;4952829;28;20059;-64
2023/04/20 11:13:48;;;;;;;29.52;16.38;;;;;;;;;;4964366;28;20049;-65
2023/04/20 11:16:15;;;;;;;26.17;13.83;;;;;;;;;;4972367;28;20566;-64
2023/04/20 11:18:40;;;;;;;;;;;;;;;;;;4963224;28;20027;-65
2023/04/20 11:21:05;;;;;;;23.50;13.07;;;;;;;;;;4954163;28;20001;-66
2023/04/20 11:23:37;;;;;;;22.70;12.83;;;;;;;;;;4953889;28;20483;-63
2023/04/20 11:26:02;;;;;;;23.35;13.98;;;;;;;;;;4956302;28;20038;-65
2023/04/20 11:28:33;;;;;;;27.83;14.25;;;;;;;;;;4964451;28;20027;-65
2023/04/20 11:30:58;;;;;;;29.05;15.32;;;;;;;;;;4973006;28;20033;-66
2023/04/20 11:33:26;;;;;;;22.73;12.77;;;;;;;;;;4973051;28;20110;-69
2023/04/20 11:35:51;;;;;;;23.85;13.77;;;;;;;;;;4973400;28;20027;-64
2023/04/20 11:38:25;;;;;;;24.05;13.07;;;;;;;;;;4971932;28;20510;-64
2023/04/20 11:40:50;;;;;;;29.20;15.05;;;;;;;;;;4971799;28;20034;-65
2023/04/20 11:43:15;;;;;;;24.75;15.15;;;;;;;;;;4972559;28;20033;-72
2023/04/20 11:45:40;;;;;;;25.23;14.70;;;;;;;;;;4955377;28;20038;-65
2023/04/20 11:48:05;;;;;;;27.13;15.27;;;;;;;;;;4953651;28;20027;-65
2023/04/20 11:50:30;;;;;;;26.75;14.73;;;;;;;;;;4953404;28;20039;-66
2023/04/20 11:52:56;;;;;;;25.63;15.17;;;;;;;;;;4953236;28;20472;-67
2023/04/20 11:55:21;;;;;;;23.40;14.07;;;;;;;;;;4959877;28;20034;-64
2023/04/20 11:57:47;;;;;;;23.75;14.60;;;;;;;;;;4968304;28;20047;-63
2023/04/20 12:00:12;;;;;;;27.47;15.67;;;;;;;;;;4953227;28;20490;-63
2023/04/20 12:02:37;;;;;;;28.05;14.45;;;;;;;;;;4953250;28;20035;-64
2023/04/20 12:05:03;;;;;;;25.80;15.02;;;;;;;;;;4952067;28;20039;-65
2023/04/20 12:07:28;;;;;;;24.75;13.68;;;;;;;;;;4952659;28;20079;-66
2023/04/20 12:09:53;;;;;;;26.60;14.75;;;;;;;;;;4959811;28;20122;-63
2023/04/20 12:12:18;;;;;;;26.38;15.27;;;;;;;;;;4964306;28;20020;-64
2023/04/20 12:14:44;;;;;;;25.83;14.00;;;;;;;;;;4952592;28;20023;-65
2023/04/20 12:17:09;;;;;;;24.57;14.60;;;;;;;;;;4952365;28;20027;-65
2023/04/20 12:19:35;;;;;;;26.05;15.45;;;;;;;;;;4952941;28;20031;-65
2023/04/20 12:22:00;;;;;;;25.55;16.10;;;;;;;;;;4959271;28;20081;-64
2023/04/20 12:24:25;;;;;;;25.15;15.27;;;;;;;;;;4970809;28;20019;-64
2023/04/20 12:26:50;;;;;;;26.07;15.03;;;;;;;;;;4971401;28;20030;-69
2023/04/20 12:29:16;;;;;;;27.73;15.82;;;;;;;;;;4971535;28;20033;-65
2023/04/20 12:31:41;;;;;;;26.47;15.50;;;;;;;;;;4970181;28;20018;-70
2023/04/20 12:34:06;;;;;;;27.63;16.85;;;;;;;;;;4972603;28;20077;-64
2023/04/20 12:36:31;;;;;;;26.93;16.30;;;;;;;;;;4971313;28;20023;-63
2023/04/20 12:38:57;;;;;;;26.00;15.60;;;;;;;;;;4971806;28;20023;-64
2023/04/20 12:41:22;;;;;;;30.63;17.10;;;;;;;;;;4971873;28;20018;-67
2023/04/20 12:43:50;;;;;;;24.80;15.13;;;;;;;;;;4971730;28;20015;-65
2023/04/20 12:46:15;;;;;;;25.73;16.08;;;;;;;;;;4975022;28;20022;-70
2023/04/20 12:48:40;;;;;;;29.95;16.67;;;;;;;;;;4970680;28;20030;-68
2023/04/20 12:51:06;;;;;;;25.27;15.00;;;;;;;;;;4970636;28;20054;-64
2023/04/20 12:53:31;;;;;;;25.90;16.02;;;;;;;;;;4971872;28;20023;-65
2023/04/20 12:55:56;;;;;;;27.35;14.98;;;;;;;;;;4972381;28;20093;-64
2023/04/20 12:58:21;;;;;;;28.13;15.77;;;;;;;;;;4969529;28;20018;-65
2023/04/20 13:00:46;;;;;;;24.58;15.15;;;;;;;;;;4971547;28;20026;-64
2023/04/20 13:03:11;;;;;;;25.70;15.07;;;;;;;;;;4971943;28;20018;-65
2023/04/20 13:05:37;;;;;;;24.60;14.73;;;;;;;;;;4971668;28;20501;-62
2023/04/20 13:08:02;;;;;;;24.80;14.02;;;;;;;;;;4971187;28;20022;-64
2023/04/20 13:10:27;;;;;;;28.77;15.32;;;;;;;;;;4970575;28;20142;-67
2023/04/20 13:12:52;;;;;;;22.77;13.37;;;;;;;;;;4966639;28;20360;-68
2023/04/20 13:15:20;;;;;;;24.93;13.60;;;;;;;;;;4966679;28;20471;-65
2023/04/20 13:17:46;;;;;;;22.75;13.43;;;;;;;;;;4971599;28;20022;-65
2023/04/20 13:20:11;;;;;;;23.77;14.35;;;;;;;;;;4970290;28;20035;-68
2023/04/20 13:22:38;;;;;;;22.87;12.83;;;;;;;;;;4971367;28;20057;-64
2023/04/20 13:25:03;;;;;;;23.70;13.10;;;;;;;;;;4972268;28;20031;-68
2023/04/20 13:27:28;;;;;;;23.20;13.73;;;;;;;;;;4970815;28;20147;-66
2023/04/20 13:29:54;;;;;;;21.70;12.57;;;;;;;;;;4974081;28;20145;-66
2023/04/20 13:32:19;;;;;;;22.83;14.25;;;;;;;;;;4972713;28;21004;-65
2023/04/20 13:34:44;;;;;;;20.80;12.50;;;;;;;;;;4972488;28;20015;-65
2023/04/20 13:37:10;;;;;;;20.60;12.25;;;;;;;;;;4972512;28;20027;-67
2023/04/20 13:39:35;;;;;;;23.05;12.32;;;;;;;;;;4968869;28;20015;-72
2023/04/20 13:42:00;;;;;;;20.80;12.23;;;;;;;;;;4971457;28;20479;-65
2023/04/20 13:44:25;;;;;;;20.58;12.80;;;;;;;;;;4974832;28;20446;-67
2023/04/20 13:46:51;;;;;;;19.63;12.30;;;;;;;;;;4975639;28;20015;-64
2023/04/20 13:49:16;;;;;;;20.65;12.38;;;;;;;;;;4975993;28;20035;-68
2023/04/20 13:51:41;;;;;;;23.27;12.80;;;;;;;;;;4975949;28;20027;-65
2023/04/20 13:54:06;;;;;;;24.23;12.60;;;;;;;;;;4973778;28;20034;-70
2023/04/20 13:56:34;;;;;;;21.13;12.47;;;;;;;;;;4974562;28;20473;-65
2023/04/20 13:58:59;;;;;;;21.77;12.05;;;;;;;;;;4974867;28;20791;-65
2023/04/20 14:01:25;;;;;;;20.03;12.33;;;;;;;;;;4976079;28;20019;-65
2023/04/20 14:03:51;;;;;;;20.83;12.70;;;;;;;;;;4973114;28;20462;-68
2023/04/20 14:06:16;;;;;;;;;;;;;;;;;;4969456;28;20023;-65
2023/04/20 14:08:41;;;;;;;21.77;12.40;;;;;;;;;;4972797;28;19924;-65
2023/04/20 14:11:07;;;;;;;19.80;11.48;;;;;;;;;;4971503;28;20023;-64
2023/04/20 14:13:32;;;;;;;18.50;11.53;;;;;;;;;;4971237;28;20027;-65